Time;durP1;ratioP1;P1;durP2;ratioP2;P2;SDS_P1;SDS_P2;PMS_P1;PMS_P2;Temp;Humidity;BMP_temperature;BMP_pressure;BME280_temperature;BME280_humidity;BME280_pressure;Samples;Min_cycle;Max_cycle;Signal;HPM_P1;HPM_P2
2023/01/19 03:38:30;;;;;;;4.55;0.85;;;11.70;61.20;;;;;;5159468;23;20435;-68
2023/01/19 03:41:01;;;;;;;4.60;1.05;;;11.70;61.50;;;;;;4883376;29;20361;-68
2023/01/19 03:43:28;;;;;;;4.47;0.50;;;11.70;61.70;;;;;;4883448;29;20190;-68
2023/01/19 03:45:55;;;;;;;3.30;0.40;;;11.70;62.00;;;;;;4883883;29;20363;-68
2023/01/19 03:48:21;;;;;;;3.35;0.47;;;11.70;62.60;;;;;;4883821;29;20108;-68
2023/01/19 03:50:47;;;;;;;5.15;0.50;;;11.80;62.80;;;;;;4883290;29;20416;-68
2023/01/19 03:53:15;;;;;;;6.15;0.75;;;11.90;63.80;;;;;;4884142;29;20056;-72
2023/01/19 03:55:46;;;;;;;3.70;0.40;;;12.00;63.50;;;;;;4883047;29;20045;-67
2023/01/19 03:58:13;;;;;;;3.97;0.65;;;12.20;63.90;;;;;;4882055;29;20124;-71
2023/01/19 04:00:38;;;;;;;2.80;0.40;;;12.30;63.70;;;;;;4882055;29;20052;-70
2023/01/19 04:03:05;;;;;;;3.92;0.77;;;12.50;63.70;;;;;;4880397;29;20547;-69
2023/01/19 04:05:32;;;;;;;6.32;0.40;;;12.70;63.70;;;;;;4875899;29;20360;-67
2023/01/19 04:07:58;;;;;;;3.85;0.52;;;12.80;63.80;;;;;;4873565;29;20364;-68
2023/01/19 04:10:24;;;;;;;4.38;0.60;;;12.90;63.90;;;;;;4882108;29;20085;-68
2023/01/19 04:12:57;;;;;;;4.57;0.68;;;13.00;63.90;;;;;;4877555;29;20088;-68
2023/01/19 04:15:23;;;;;;;8.07;0.60;;;13.00;64.00;;;;;;4874709;29;20059;-70
2023/01/19 04:17:48;;;;;;;5.80;1.00;;;13.10;64.00;;;;;;4880132;29;20041;-68
2023/01/19 04:20:14;;;;;;;5.22;0.82;;;13.10;64.00;;;;;;4878933;29;20375;-69
2023/01/19 04:22:41;;;;;;;6.53;0.82;;;13.10;64.10;;;;;;4879131;29;20072;-68
2023/01/19 04:25:08;;;;;;;7.03;0.73;;;13.10;64.10;;;;;;4879375;29;20188;-68
2023/01/19 04:27:34;;;;;;;3.47;0.52;;;13.10;64.00;;;;;;4878842;29;20045;-70
2023/01/19 04:30:02;;;;;;;5.90;0.70;;;13.10;64.00;;;;;;4876796;29;20124;-68
2023/01/19 04:32:28;;;;;;;5.05;0.77;;;13.10;64.20;;;;;;4878807;29;20041;-68
2023/01/19 04:34:54;;;;;;;2.83;0.50;;;13.10;64.20;;;;;;4876637;29;20132;-67
2023/01/19 04:37:20;;;;;;;2.47;0.40;;;13.00;64.00;;;;;;4912306;29;20133;-69
2023/01/19 04:39:46;;;;;;;3.63;1.00;;;13.00;64.20;;;;;;4880033;29;20057;-69
2023/01/19 04:42:12;;;;;;;2.30;0.30;;;13.00;64.30;;;;;;4882316;29;20369;-69
2023/01/19 04:44:38;;;;;;;4.25;0.60;;;13.00;64.60;;;;;;4881924;29;20060;-67
2023/01/19 04:47:04;;;;;;;2.10;0.40;;;13.00;64.80;;;;;;4880477;29;20131;-70
2023/01/19 04:49:29;;;;;;;5.00;0.63;;;13.00;64.80;;;;;;4877336;29;20113;-67
2023/01/19 04:51:55;;;;;;;2.75;0.73;;;12.90;64.60;;;;;;4880674;29;20444;-67
2023/01/19 04:54:21;;;;;;;3.67;0.50;;;12.90;64.50;;;;;;4875441;29;20136;-67
2023/01/19 04:56:47;;;;;;;3.13;0.30;;;12.90;64.70;;;;;;4874501;29;20050;-70
2023/01/19 04:59:13;;;;;;;4.85;0.45;;;12.90;64.80;;;;;;4878408;29;20104;-69
2023/01/19 05:01:39;;;;;;;3.60;0.43;;;12.80;65.00;;;;;;4875130;29;20057;-66
2023/01/19 05:04:06;;;;;;;2.05;0.50;;;12.80;65.10;;;;;;4878405;29;20468;-68
2023/01/19 05:06:33;;;;;;;9.27;0.70;;;12.80;65.10;;;;;;4876160;29;20057;-67
2023/01/19 05:08:59;;;;;;;1.83;0.30;;;12.80;65.00;;;;;;4875111;29;20041;-68
2023/01/19 05:11:25;;;;;;;8.07;0.60;;;12.80;65.10;;;;;;4874414;29;20060;-70
2023/01/19 05:13:51;;;;;;;3.78;0.40;;;12.80;64.80;;;;;;4876963;29;20053;-68
2023/01/19 05:16:17;;;;;;;2.40;0.50;;;12.80;64.20;;;;;;4911267;29;20482;-66
2023/01/19 05:18:43;;;;;;;3.30;0.57;;;12.90;63.60;;;;;;4879766;29;20048;-70
2023/01/19 05:21:09;;;;;;;2.65;0.63;;;12.90;63.10;;;;;;4876586;29;20110;-69
2023/01/19 05:23:34;;;;;;;4.10;0.50;;;12.90;62.70;;;;;;4911024;29;20045;-69
2023/01/19 05:26:01;;;;;;;2.63;0.30;;;12.90;62.60;;;;;;4877189;29;20060;-69
2023/01/19 05:28:31;;;;;;;3.55;0.32;;;12.90;62.80;;;;;;4881851;29;20072;-68
2023/01/19 05:30:57;;;;;;;6.45;0.63;;;12.80;62.80;;;;;;4874978;29;20045;-67
2023/01/19 05:33:24;;;;;;;3.25;0.50;;;12.90;62.90;;;;;;4892545;29;20049;-68
2023/01/19 05:35:53;;;;;;;3.67;0.63;;;12.90;62.70;;;;;;4892777;29;20474;-67
2023/01/19 05:38:20;;;;;;;3.05;0.60;;;13.10;62.90;;;;;;4880881;29;20045;-67
2023/01/19 05:40:46;;;;;;;5.40;0.68;;;13.20;62.70;;;;;;4880951;29;20200;-71
2023/01/19 05:43:13;;;;;;;4.10;0.70;;;13.30;62.70;;;;;;4880751;29;20045;-70
2023/01/19 05:45:38;;;;;;;4.18;0.50;;;13.40;62.80;;;;;;4881171;29;20460;-70
2023/01/19 05:48:05;;;;;;;6.93;0.85;;;13.50;62.90;;;;;;4881651;29;20044;-69
2023/01/19 05:50:31;;;;;;;9.65;1.70;;;13.60;62.80;;;;;;4911605;29;20476;-69
2023/01/19 05:52:58;;;;;;;12.70;1.05;;;13.70;63.10;;;;;;4880976;29;20338;-73
2023/01/19 05:55:25;;;;;;;10.07;1.45;;;13.70;63.30;;;;;;4880588;29;20365;-67
2023/01/19 05:57:50;;;;;;;7.95;1.02;;;13.90;63.50;;;;;;4880623;29;20072;-68
2023/01/19 06:00:17;;;;;;;14.30;1.48;;;14.00;63.50;;;;;;4880020;29;20152;-68
2023/01/19 06:02:43;;;;;;;12.98;1.52;;;14.00;63.70;;;;;;4880708;29;20084;-67
2023/01/19 06:05:09;;;;;;;9.65;1.73;;;14.10;63.90;;;;;;4880968;29;20048;-68
2023/01/19 06:07:35;;;;;;;6.90;1.13;;;14.20;64.10;;;;;;4880648;29;20052;-68
2023/01/19 06:10:01;;;;;;;10.68;1.58;;;14.20;64.10;;;;;;4880675;29;20060;-70
2023/01/19 06:12:27;;;;;;;13.65;1.85;;;14.20;64.10;;;;;;4880744;29;20056;-66
2023/01/19 06:14:52;;;;;;;11.30;1.92;;;14.30;64.10;;;;;;4880426;29;20049;-68
2023/01/19 06:17:19;;;;;;;13.70;2.00;;;14.40;64.50;;;;;;4880839;29;20113;-67
2023/01/19 06:19:44;;;;;;;15.43;2.33;;;14.40;64.60;;;;;;4880389;29;20053;-69
2023/01/19 06:22:10;;;;;;;15.57;2.28;;;14.60;64.80;;;;;;4880630;29;20055;-68
2023/01/19 06:24:36;;;;;;;24.67;2.88;;;14.50;64.70;;;;;;4880643;29;20049;-68
2023/01/19 06:27:02;;;;;;;18.95;2.50;;;14.60;64.70;;;;;;4879285;29;20051;-69
2023/01/19 06:29:28;;;;;;;23.27;2.50;;;14.70;64.70;;;;;;4880610;29;20059;-68
2023/01/19 06:31:54;;;;;;;21.58;2.78;;;14.70;64.70;;;;;;4880285;29;20048;-67
2023/01/19 06:34:20;;;;;;;19.67;3.45;;;14.80;64.60;;;;;;4880612;29;20055;-67
2023/01/19 06:36:46;;;;;;;18.02;2.70;;;14.80;64.50;;;;;;4879154;29;20342;-66
2023/01/19 06:39:12;;;;;;;27.48;3.80;;;14.90;64.30;;;;;;4880317;29;20068;-67
2023/01/19 06:41:38;;;;;;;21.70;2.03;;;15.00;64.30;;;;;;4880216;29;20049;-68
2023/01/19 06:44:04;;;;;;;14.77;2.03;;;14.90;64.20;;;;;;4881420;29;21007;-67
2023/01/19 06:46:31;;;;;;;14.00;1.85;;;15.00;63.90;;;;;;4867849;29;20473;-67
2023/01/19 06:48:56;;;;;;;13.18;1.80;;;15.00;64.10;;;;;;4884059;29;20108;-67
2023/01/19 06:51:23;;;;;;;19.38;1.73;;;15.10;64.30;;;;;;4884079;29;20408;-68
2023/01/19 06:53:49;;;;;;;12.93;2.50;;;15.00;63.80;;;;;;4883677;29;20075;-68
2023/01/19 06:56:15;;;;;;;16.23;2.28;;;15.10;64.20;;;;;;4883827;29;20045;-67
2023/01/19 06:58:41;;;;;;;21.50;2.92;;;15.10;64.30;;;;;;4896778;29;20064;-68
2023/01/19 07:01:13;;;;;;;22.30;2.05;;;15.20;64.60;;;;;;4902501;29;20048;-69
2023/01/19 07:03:39;;;;;;;13.10;2.30;;;15.20;64.70;;;;;;4898886;29;20049;-68
2023/01/19 07:06:06;;;;;;;19.60;2.67;;;15.20;64.50;;;;;;4883813;29;20177;-70
2023/01/19 07:08:36;;;;;;;15.68;2.35;;;15.20;64.40;;;;;;4882610;29;20073;-70
2023/01/19 07:11:08;;;;;;;33.65;5.57;;;15.20;64.40;;;;;;4883722;29;20048;-67
2023/01/19 07:13:35;;;;;;;30.50;3.17;;;15.10;64.30;;;;;;4883175;29;20089;-69
2023/01/19 07:16:09;;;;;;;22.45;3.10;;;15.10;64.40;;;;;;4883726;29;20045;-68
2023/01/19 07:18:39;;;;;;;22.95;3.08;;;15.10;64.40;;;;;;4882947;29;20053;-70
2023/01/19 07:21:06;;;;;;;21.85;2.67;;;15.00;64.00;;;;;;4883252;29;20128;-68
2023/01/19 07:23:32;;;;;;;38.97;4.30;;;15.00;64.20;;;;;;4883464;29;20041;-68
2023/01/19 07:26:00;;;;;;;19.15;2.78;;;14.90;64.30;;;;;;4883327;29;20492;-69
2023/01/19 07:28:27;;;;;;;24.98;2.70;;;14.90;64.40;;;;;;4883151;29;20060;-69
2023/01/19 07:30:54;;;;;;;19.48;3.03;;;14.80;64.70;;;;;;4913539;29;20045;-67
2023/01/19 07:33:24;;;;;;;16.58;2.75;;;14.70;64.80;;;;;;4883071;29;20063;-68
2023/01/19 07:35:51;;;;;;;21.38;3.05;;;14.70;64.90;;;;;;4883225;29;20045;-69
2023/01/19 07:38:18;;;;;;;19.70;2.30;;;14.60;64.90;;;;;;4881683;29;20108;-68
2023/01/19 07:40:47;;;;;;;25.67;2.95;;;14.60;65.00;;;;;;4883314;29;20064;-67
2023/01/19 07:43:13;;;;;;;15.93;2.35;;;14.50;65.20;;;;;;4883166;29;20080;-68
2023/01/19 07:45:39;;;;;;;21.63;3.30;;;14.50;65.30;;;;;;4881941;29;20543;-70
2023/01/19 07:48:05;;;;;;;19.77;2.50;;;14.50;65.30;;;;;;4882855;29;20125;-68
2023/01/19 07:50:31;;;;;;;20.42;2.22;;;14.40;65.40;;;;;;4882810;29;20132;-68
2023/01/19 07:53:03;;;;;;;19.52;2.85;;;14.40;65.60;;;;;;4882632;29;20448;-72
2023/01/19 07:55:28;;;;;;;15.88;2.30;;;14.40;65.30;;;;;;4882353;29;20113;-70
2023/01/19 07:57:54;;;;;;;26.88;3.58;;;14.10;62.40;;;;;;4882982;29;20052;-71
2023/01/19 08:00:23;;;;;;;23.15;2.40;;;14.10;63.90;;;;;;4883180;29;20052;-69
2023/01/19 08:02:50;;;;;;;18.55;2.65;;;14.10;64.20;;;;;;4882672;29;20124;-69
2023/01/19 08:05:20;;;;;;;14.30;1.95;;;14.10;64.30;;;;;;4881693;29;20173;-71
2023/01/19 08:07:46;;;;;;;17.42;2.67;;;14.00;64.00;;;;;;4882136;29;20057;-70
2023/01/19 08:10:13;;;;;;;15.48;2.17;;;14.10;64.10;;;;;;4879597;29;20132;-69
2023/01/19 08:12:40;;;;;;;10.90;2.10;;;14.00;64.00;;;;;;4879402;29;20053;-69
2023/01/19 08:15:10;;;;;;;18.80;2.53;;;14.00;63.90;;;;;;4875826;29;20049;-69
2023/01/19 08:17:36;;;;;;;11.73;2.50;;;14.00;64.00;;;;;;4876405;29;20064;-70
2023/01/19 08:20:02;;;;;;;8.63;1.25;;;14.00;64.00;;;;;;4876907;29;20041;-70
2023/01/19 08:22:27;;;;;;;14.70;1.98;;;13.90;64.00;;;;;;4878879;29;20369;-69
2023/01/19 08:24:53;;;;;;;13.75;2.17;;;13.90;64.00;;;;;;4876283;29;20049;-71
2023/01/19 08:27:19;;;;;;;8.60;1.90;;;13.90;64.00;;;;;;4876383;29;20437;-69
2023/01/19 08:29:45;;;;;;;13.70;1.77;;;13.80;64.20;;;;;;4878288;29;20476;-70
2023/01/19 08:32:11;;;;;;;10.65;2.22;;;13.80;64.40;;;;;;4877805;29;20073;-71
2023/01/19 08:34:37;;;;;;;13.20;2.60;;;13.80;64.60;;;;;;4885007;29;20085;-69
2023/01/19 08:37:02;;;;;;;12.55;2.13;;;13.80;64.60;;;;;;4886810;29;20045;-68
2023/01/19 08:39:28;;;;;;;9.98;1.90;;;13.80;64.80;;;;;;4883701;29;20575;-69
2023/01/19 08:41:55;;;;;;;10.10;1.92;;;13.70;64.80;;;;;;4881526;29;20074;-67
2023/01/19 08:44:21;;;;;;;10.45;2.15;;;13.70;64.90;;;;;;4881250;29;20056;-68
2023/01/19 08:46:47;;;;;;;10.00;2.20;;;13.70;65.00;;;;;;4881829;29;20053;-70
2023/01/19 08:49:12;;;;;;;8.05;2.95;;;13.70;65.20;;;;;;4882052;29;20068;-69
2023/01/19 08:51:38;;;;;;;10.82;1.60;;;13.70;65.30;;;;;;4881375;29;20508;-68
2023/01/19 08:54:04;;;;;;;9.95;1.50;;;13.40;64.60;;;;;;4882003;29;20437;-72
2023/01/19 08:56:30;;;;;;;12.38;1.52;;;13.50;64.90;;;;;;4881807;29;20108;-70
2023/01/19 08:58:56;;;;;;;21.92;2.85;;;13.50;65.50;;;;;;4881467;29;20063;-69
2023/01/19 09:01:22;;;;;;;7.00;1.52;;;13.70;65.70;;;;;;4881700;29;20045;-75
2023/01/19 09:03:48;;;;;;;9.88;1.80;;;13.80;64.60;;;;;;4881536;29;20080;-75
2023/01/19 09:06:18;;;;;;;14.02;1.70;;;13.90;64.90;;;;;;4880882;29;20401;-77
2023/01/19 09:08:44;;;;;;;9.98;1.70;;;14.00;63.50;;;;;;4911720;29;20064;-69
2023/01/19 09:11:12;;;;;;;7.25;1.05;;;14.10;62.40;;;;;;4881310;29;20037;-74
2023/01/19 09:13:44;;;;;;;9.35;1.80;;;14.10;60.60;;;;;;4881379;29;20063;-77
2023/01/19 09:16:11;;;;;;;7.03;1.00;;;14.00;58.90;;;;;;4881868;29;20397;-72
2023/01/19 09:18:38;;;;;;;10.43;1.27;;;14.00;58.60;;;;;;4881347;29;20043;-75
2023/01/19 09:21:04;;;;;;;8.02;1.35;;;14.00;58.70;;;;;;4881322;29;20045;-76
2023/01/19 09:23:30;;;;;;;10.23;1.40;;;14.00;58.90;;;;;;4881118;29;20473;-74
2023/01/19 09:26:01;;;;;;;9.65;1.10;;;14.00;59.80;;;;;;4881343;29;20032;-75
2023/01/19 09:28:28;;;;;;;9.18;1.40;;;13.90;59.20;;;;;;4880444;29;20413;-73
2023/01/19 09:30:54;;;;;;;6.40;0.90;;;13.90;59.40;;;;;;4881223;29;20194;-74
2023/01/19 09:33:20;;;;;;;6.85;0.85;;;13.90;59.60;;;;;;4881215;29;20040;-74
2023/01/19 09:35:47;;;;;;;7.93;0.47;;;13.90;59.70;;;;;;4881465;29;20076;-75
2023/01/19 09:38:15;;;;;;;5.45;0.68;;;13.80;59.80;;;;;;4880170;29;20056;-75
2023/01/19 09:40:48;;;;;;;5.35;0.47;;;13.80;60.00;;;;;;4880855;29;20457;-75
2023/01/19 09:43:44;;;;;;;4.63;0.67;;;13.80;60.10;;;;;;4880863;29;20388;-74
2023/01/19 09:46:20;;;;;;;5.00;0.60;;;13.80;60.10;;;;;;4880116;29;20409;-74
2023/01/19 09:48:57;;;;;;;3.50;0.57;;;13.70;60.30;;;;;;4880658;29;20053;-76
2023/01/19 09:51:27;;;;;;;2.67;0.38;;;13.70;60.40;;;;;;4874122;29;20048;-76
2023/01/19 09:54:08;;;;;;;1.20;0.20;;;13.70;60.60;;;;;;4880589;29;20057;-77
2023/01/19 09:56:34;;;;;;;2.63;0.30;;;13.60;60.60;;;;;;4875357;29;20127;-74
2023/01/19 09:59:01;;;;;;;1.67;0.22;;;13.60;60.70;;;;;;4880188;29;20073;-73
2023/01/19 10:01:45;;;;;;;2.92;0.47;;;13.60;60.80;;;;;;4881272;29;20425;-75
2023/01/19 10:04:22;;;;;;;1.45;0.30;;;13.60;60.90;;;;;;4880748;29;20049;-73
2023/01/19 10:06:48;;;;;;;0.50;0.10;;;13.60;61.00;;;;;;4880942;29;20059;-76
2023/01/19 10:09:22;;;;;;;1.02;0.13;;;13.60;61.10;;;;;;4880577;29;20049;-72
2023/01/19 10:11:55;;;;;;;1.58;0.30;;;13.50;61.10;;;;;;4881030;29;20069;-74
2023/01/19 10:14:44;;;;;;;0.93;0.10;;;13.50;61.20;;;;;;4880025;29;20362;-76
2023/01/19 10:17:45;;;;;;;2.13;0.32;;;13.50;61.30;;;;;;4880721;29;20060;-76
2023/01/19 10:20:25;;;;;;;6.30;0.60;;;13.50;61.20;;;;;;4883919;29;20112;-74
2023/01/19 10:22:51;;;;;;;2.65;0.15;;;13.50;61.40;;;;;;4883562;29;20045;-76
2023/01/19 10:25:22;;;;;;;7.13;0.40;;;13.50;61.30;;;;;;4884451;29;20329;-78
2023/01/19 10:27:48;;;;;;;2.83;0.40;;;13.60;61.40;;;;;;4884123;29;20045;-77
2023/01/19 10:30:26;;;;;;;3.08;0.57;;;13.80;61.50;;;;;;4884278;29;20068;-78
2023/01/19 10:32:52;;;;;;;4.20;0.60;;;14.00;61.60;;;;;;4883246;29;20448;-77
2023/01/19 10:35:23;;;;;;;4.05;0.80;;;14.10;61.50;;;;;;4883354;29;20376;-76
2023/01/19 10:37:58;;;;;;;7.32;1.25;;;14.20;62.30;;;;;;4883509;29;20057;-74
2023/01/19 10:40:46;;;;;;;10.73;1.83;;;14.30;61.80;;;;;;4882967;29;20065;-76
2023/01/19 10:43:33;;;;;;;6.82;1.70;;;14.40;62.00;;;;;;4883287;29;20053;-77
2023/01/19 10:46:16;;;;;;;6.03;1.67;;;14.50;62.00;;;;;;4884249;29;20076;-77
2023/01/19 10:48:42;;;;;;;6.72;1.50;;;14.60;62.00;;;;;;4884326;29;20492;-74
2023/01/19 10:51:09;;;;;;;4.88;1.17;;;14.70;62.20;;;;;;4882872;29;20056;-73
2023/01/19 10:53:36;;;;;;;4.57;1.25;;;14.80;62.40;;;;;;4875728;29;20057;-75
2023/01/19 10:56:29;;;;;;;3.20;1.27;;;14.80;62.50;;;;;;4883906;29;20056;-76
2023/01/19 10:58:56;;;;;;;11.30;1.87;;;14.90;62.60;;;;;;4884109;29;20044;-76
2023/01/19 11:01:27;;;;;;;3.92;1.27;;;15.00;62.40;;;;;;4883012;29;20333;-74
2023/01/19 11:03:55;;;;;;;7.38;1.55;;;15.10;62.40;;;;;;4883602;29;20045;-74
2023/01/19 11:06:29;;;;;;;5.57;1.10;;;15.10;62.30;;;;;;4882089;29;20057;-74
2023/01/19 11:09:16;;;;;;;5.93;1.13;;;15.20;62.30;;;;;;4883022;29;20061;-74
2023/01/19 11:12:00;;;;;;;4.53;1.35;;;15.30;62.20;;;;;;4876831;29;20057;-74
2023/01/19 11:14:30;;;;;;;4.22;0.90;;;15.30;62.10;;;;;;4883437;29;20049;-75
2023/01/19 11:16:57;;;;;;;4.38;1.42;;;15.40;62.10;;;;;;4883349;29;20405;-76
2023/01/19 11:19:29;;;;;;;7.53;1.20;;;15.40;61.90;;;;;;4883287;29;20115;-76
2023/01/19 11:22:21;;;;;;;5.82;0.95;;;15.40;61.70;;;;;;4883452;29;20132;-75
2023/01/19 11:24:48;;;;;;;5.93;1.30;;;15.50;61.70;;;;;;4883627;29;20488;-76
2023/01/19 11:27:20;;;;;;;3.78;0.70;;;15.40;61.60;;;;;;4883192;29;20045;-77
2023/01/19 11:29:52;;;;;;;4.70;1.40;;;15.40;61.50;;;;;;4874921;29;20052;-74
2023/01/19 11:32:21;;;;;;;2.50;0.80;;;15.40;61.10;;;;;;4883405;29;20088;-78
2023/01/19 11:34:48;;;;;;;4.30;0.80;;;15.40;61.40;;;;;;4882264;29;20041;-78
2023/01/19 11:37:20;;;;;;;6.10;0.60;;;15.40;61.50;;;;;;4882002;29;20108;-76
2023/01/19 11:39:48;;;;;;;4.53;0.80;;;15.30;61.70;;;;;;4881459;29;20056;-75
2023/01/19 11:42:16;;;;;;;6.43;1.05;;;15.30;61.80;;;;;;4881070;29;20124;-76
2023/01/19 11:44:59;;;;;;;6.43;1.08;;;15.20;61.80;;;;;;4882667;29;20483;-74
2023/01/19 11:47:51;;;;;;;6.20;1.23;;;15.20;61.60;;;;;;4883169;29;20045;-76
2023/01/19 11:50:19;;;;;;;7.00;1.08;;;15.10;61.60;;;;;;4878451;29;20045;-75
2023/01/19 11:52:52;;;;;;;3.70;0.93;;;15.00;61.80;;;;;;4882905;29;20061;-76
2023/01/19 11:55:35;;;;;;;7.15;0.95;;;15.00;61.80;;;;;;4882955;29;20044;-74
2023/01/19 11:58:02;;;;;;;6.05;1.00;;;15.00;62.00;;;;;;4882809;29;20128;-78
2023/01/19 12:00:54;;;;;;;5.88;0.70;;;14.90;62.00;;;;;;4881694;29;20053;-77
2023/01/19 12:03:31;;;;;;;4.38;0.65;;;14.70;59.70;;;;;;4882954;29;20060;-74
2023/01/19 12:06:08;;;;;;;3.67;0.60;;;14.50;62.10;;;;;;4884882;29;20052;-74
2023/01/19 12:08:52;;;;;;;5.57;0.95;;;14.60;62.30;;;;;;4901385;29;20063;-75
2023/01/19 12:11:31;;;;;;;3.28;0.70;;;14.60;61.50;;;;;;4919722;29;20084;-76
2023/01/19 12:13:58;;;;;;;8.88;1.20;;;14.70;60.00;;;;;;4897140;29;20342;-77
2023/01/19 12:16:28;;;;;;;4.53;0.75;;;14.60;58.80;;;;;;4893088;29;20132;-74
2023/01/19 12:19:34;;;;;;;6.25;1.13;;;14.60;58.10;;;;;;4885050;29;20503;-77
2023/01/19 12:22:00;;;;;;;6.72;0.70;;;14.50;58.30;;;;;;4882300;29;20353;-74
2023/01/19 12:24:33;;;;;;;5.38;0.50;;;14.50;58.20;;;;;;4882620;29;20476;-76
2023/01/19 12:27:06;;;;;;;3.65;1.25;;;14.50;58.40;;;;;;4882119;29;20053;-77
2023/01/19 12:29:34;;;;;;;7.57;0.95;;;14.60;58.40;;;;;;4882403;29;20056;-76
2023/01/19 12:32:12;;;;;;;4.40;0.80;;;14.50;58.30;;;;;;4881522;29;20136;-76
2023/01/19 12:34:50;;;;;;;4.38;0.77;;;14.50;57.90;;;;;;4884390;29;20044;-76
2023/01/19 12:37:34;;;;;;;3.08;0.47;;;14.40;58.30;;;;;;4900531;29;20045;-75
2023/01/19 12:40:04;;;;;;;4.40;0.95;;;14.40;58.40;;;;;;4887679;29;20385;-74
2023/01/19 12:42:30;;;;;;;4.60;0.98;;;14.40;58.90;;;;;;4881254;29;20088;-74
2023/01/19 12:45:16;;;;;;;4.90;0.60;;;14.30;59.10;;;;;;4912857;29;20127;-73
2023/01/19 12:47:52;;;;;;;4.35;0.93;;;14.30;59.10;;;;;;4882687;29;20378;-75
2023/01/19 12:50:22;;;;;;;5.65;1.05;;;14.20;58.80;;;;;;4922971;29;20071;-75
2023/01/19 12:53:01;;;;;;;4.93;0.90;;;14.20;59.10;;;;;;4882913;29;20045;-75
2023/01/19 12:55:36;;;;;;;5.50;0.80;;;14.30;59.20;;;;;;4913024;29;20124;-74
2023/01/19 12:58:06;;;;;;;3.47;0.60;;;14.20;59.00;;;;;;4883174;29;20052;-73
2023/01/19 13:00:41;;;;;;;6.53;0.80;;;14.20;59.60;;;;;;4883026;29;20049;-76
2023/01/19 13:03:16;;;;;;;4.70;0.80;;;14.10;59.30;;;;;;4897767;29;20127;-74
2023/01/19 13:05:42;;;;;;;5.07;0.88;;;14.10;59.40;;;;;;4900778;29;20474;-74
2023/01/19 13:08:07;;;;;;;3.28;0.80;;;14.10;59.50;;;;;;4900869;29;20056;-74
2023/01/19 13:10:54;;;;;;;4.32;0.70;;;14.10;59.40;;;;;;4901166;29;20068;-74
2023/01/19 13:13:30;;;;;;;4.85;0.50;;;14.10;59.20;;;;;;4883507;29;20041;-73
2023/01/19 13:16:19;;;;;;;3.47;0.70;;;14.00;59.10;;;;;;4881947;29;20093;-72
2023/01/19 13:18:47;;;;;;;3.65;0.70;;;14.00;59.10;;;;;;4881050;29;20112;-73
2023/01/19 13:21:25;;;;;;;4.20;0.77;;;14.00;59.40;;;;;;4881943;29;20060;-74
2023/01/19 13:23:54;;;;;;;3.67;0.50;;;14.00;59.60;;;;;;4863362;29;20058;-74
2023/01/19 13:26:37;;;;;;;2.45;0.60;;;13.90;59.70;;;;;;4863447;29;20056;-74
2023/01/19 13:29:15;;;;;;;4.13;0.65;;;13.90;59.40;;;;;;4863283;29;20496;-72
2023/01/19 13:31:47;;;;;;;3.03;0.50;;;13.90;59.60;;;;;;4865268;29;20179;-72
2023/01/19 13:34:23;;;;;;;6.75;0.90;;;13.80;60.00;;;;;;4881441;29;20053;-73
2023/01/19 13:36:54;;;;;;;5.75;0.70;;;13.80;60.30;;;;;;4881453;29;20048;-76
2023/01/19 13:39:36;;;;;;;8.02;1.02;;;13.80;60.00;;;;;;4880205;29;20448;-76
2023/01/19 13:42:10;;;;;;;7.05;1.25;;;13.80;59.90;;;;;;4880936;29;20060;-76
2023/01/19 13:44:51;;;;;;;7.32;0.93;;;13.80;60.10;;;;;;4881140;29;20112;-77
2023/01/19 13:47:32;;;;;;;8.98;0.98;;;13.80;60.10;;;;;;4879893;29;20127;-75
2023/01/19 13:49:59;;;;;;;9.57;1.08;;;13.90;60.40;;;;;;4879590;29;20061;-74
2023/01/19 13:52:27;;;;;;;7.45;0.90;;;14.10;60.50;;;;;;4881190;29;20045;-71
2023/01/19 13:54:57;;;;;;;5.53;0.80;;;14.20;60.50;;;;;;4879672;29;20053;-70
2023/01/19 13:57:24;;;;;;;11.85;1.90;;;14.30;60.40;;;;;;4881325;29;20103;-72
2023/01/19 14:00:10;;;;;;;11.88;1.20;;;14.40;60.30;;;;;;4881408;29;20368;-76
2023/01/19 14:02:39;;;;;;;11.15;1.65;;;14.50;60.40;;;;;;4881111;29;20052;-74
2023/01/19 14:05:20;;;;;;;20.55;1.98;;;14.50;60.20;;;;;;4881452;29;20108;-75
2023/01/19 14:07:45;;;;;;;13.50;2.17;;;14.60;60.20;;;;;;4881110;29;20341;-75
2023/01/19 14:10:13;;;;;;;11.98;1.45;;;14.70;60.50;;;;;;4881583;29;20053;-75
2023/01/19 14:12:39;;;;;;;14.82;2.20;;;14.70;60.60;;;;;;4880749;29;20130;-77
2023/01/19 14:15:12;;;;;;;16.48;2.03;;;14.80;60.60;;;;;;4881402;29;20171;-76
2023/01/19 14:17:39;;;;;;;16.70;1.83;;;14.90;60.70;;;;;;4879843;29;20342;-77
2023/01/19 14:20:06;;;;;;;8.80;1.38;;;15.00;60.80;;;;;;4881686;29;20045;-75
2023/01/19 14:22:45;;;;;;;12.82;1.77;;;15.10;60.80;;;;;;4881442;29;20057;-77
2023/01/19 14:25:31;;;;;;;12.68;1.50;;;15.20;60.80;;;;;;4880840;29;20055;-74
2023/01/19 14:28:29;;;;;;;14.20;2.00;;;15.30;60.70;;;;;;4881199;29;20045;-75
2023/01/19 14:30:56;;;;;;;12.38;1.25;;;15.40;60.60;;;;;;4881107;29;20365;-75
2023/01/19 14:33:40;;;;;;;11.73;1.02;;;15.50;60.40;;;;;;4880673;29;20041;-76
2023/01/19 14:36:16;;;;;;;;;;;15.60;60.50;;;;;;4881709;29;20048;-77
2023/01/19 14:38:46;;;;;;;9.55;1.52;;;15.60;60.30;;;;;;4881084;29;20039;-76
2023/01/19 14:41:21;;;;;;;22.05;3.28;;;15.70;60.30;;;;;;4881082;29;20060;-76
2023/01/19 14:43:47;;;;;;;15.95;1.77;;;15.70;60.30;;;;;;4881704;29;20053;-76
2023/01/19 14:46:19;;;;;;;11.60;2.03;;;15.70;60.40;;;;;;4880993;29;20341;-78
2023/01/19 14:48:49;;;;;;;12.07;1.77;;;15.70;60.40;;;;;;4880578;29;20060;-74
2023/01/19 14:51:22;;;;;;;13.65;1.38;;;15.70;60.40;;;;;;4880023;29;20145;-73
2023/01/19 14:53:53;;;;;;;8.82;1.10;;;15.80;60.50;;;;;;4880659;29;20479;-77
2023/01/19 14:56:46;;;;;;;13.40;1.48;;;15.80;60.00;;;;;;4879725;29;20085;-74
2023/01/19 14:59:12;;;;;;;11.32;1.10;;;15.80;56.00;;;;;;4880719;29;20369;-74
2023/01/19 15:01:38;;;;;;;12.45;1.60;;;15.70;55.50;;;;;;4880808;29;20041;-75
2023/01/19 15:04:04;;;;;;;13.77;1.77;;;15.70;55.10;;;;;;4880986;29;20064;-76
2023/01/19 15:06:31;;;;;;;19.42;2.60;;;15.70;55.30;;;;;;4884138;29;20372;-74
2023/01/19 15:08:57;;;;;;;6.18;0.90;;;15.70;55.70;;;;;;4883729;29;20053;-75
2023/01/19 15:11:30;;;;;;;8.85;1.10;;;15.70;54.90;;;;;;4884265;29;20049;-73
2023/01/19 15:13:57;;;;;;;9.57;0.70;;;15.70;53.70;;;;;;4884458;29;20057;-75
2023/01/19 15:16:26;;;;;;;6.32;0.80;;;15.70;53.40;;;;;;4884642;29;20369;-76
2023/01/19 15:18:52;;;;;;;6.05;0.70;;;15.70;53.60;;;;;;4884290;29;20061;-77
2023/01/19 15:21:25;;;;;;;9.48;1.17;;;15.70;53.90;;;;;;4883849;29;20045;-76
2023/01/19 15:23:52;;;;;;;8.82;0.90;;;15.60;54.20;;;;;;4883763;29;20338;-75
2023/01/19 15:26:21;;;;;;;12.10;1.65;;;15.50;54.40;;;;;;4883839;29;20049;-78
2023/01/19 15:28:48;;;;;;;5.32;0.43;;;15.50;54.70;;;;;;4882975;29;20540;-74
2023/01/19 15:31:24;;;;;;;9.18;1.50;;;15.50;55.00;;;;;;4883909;29;20057;-74
2023/01/19 15:33:50;;;;;;;7.57;0.60;;;15.40;55.10;;;;;;4884089;29;20041;-76
2023/01/19 15:36:18;;;;;;;5.32;0.82;;;15.40;55.40;;;;;;4883709;29;20345;-74
2023/01/19 15:38:44;;;;;;;3.47;0.70;;;15.30;55.60;;;;;;4883738;29;20468;-76
2023/01/19 15:41:25;;;;;;;6.28;0.77;;;15.30;55.70;;;;;;4883676;29;20060;-75
2023/01/19 15:43:51;;;;;;;3.90;0.50;;;15.20;55.80;;;;;;4884182;29;20064;-73
2023/01/19 15:46:19;;;;;;;6.32;0.57;;;15.10;56.10;;;;;;4882794;29;20049;-75
2023/01/19 15:48:46;;;;;;;4.45;0.40;;;15.10;56.30;;;;;;4865010;29;20057;-73
2023/01/19 15:51:13;;;;;;;8.48;0.90;;;15.10;56.50;;;;;;4864984;29;20053;-76
2023/01/19 15:53:40;;;;;;;3.50;0.40;;;15.00;56.50;;;;;;4865027;29;20060;-73
2023/01/19 15:56:12;;;;;;;6.40;0.60;;;15.00;56.50;;;;;;4864803;29;20080;-77
2023/01/19 15:58:37;;;;;;;4.25;1.08;;;14.90;56.80;;;;;;4895574;29;20331;-75
2023/01/19 16:01:03;;;;;;;6.38;1.25;;;14.90;57.10;;;;;;4863913;29;20063;-76
2023/01/19 16:03:29;;;;;;;6.72;0.80;;;14.90;57.60;;;;;;4863892;29;20096;-77
2023/01/19 16:05:58;;;;;;;5.25;0.80;;;14.90;57.90;;;;;;4864950;29;20432;-76
2023/01/19 16:08:26;;;;;;;11.05;1.08;;;15.00;58.20;;;;;;4864915;29;20065;-75
2023/01/19 16:10:52;;;;;;;4.90;0.55;;;15.20;58.30;;;;;;4879124;29;20041;-76
2023/01/19 16:13:17;;;;;;;5.65;0.45;;;15.20;58.30;;;;;;4897389;29;20052;-75
2023/01/19 16:15:43;;;;;;;14.27;1.58;;;15.30;58.40;;;;;;4881658;29;20124;-74
2023/01/19 16:18:12;;;;;;;11.38;1.00;;;15.30;58.60;;;;;;4897580;29;20041;-77
2023/01/19 16:20:51;;;;;;;11.40;0.98;;;15.30;58.90;;;;;;4897102;29;20052;-76
2023/01/19 16:23:21;;;;;;;7.45;0.85;;;15.30;59.10;;;;;;4881667;29;20049;-76
2023/01/19 16:26:03;;;;;;;5.50;0.70;;;15.40;59.60;;;;;;4897483;29;20037;-75
2023/01/19 16:28:33;;;;;;;11.45;1.13;;;15.30;60.10;;;;;;4897547;29;20476;-75
2023/01/19 16:31:01;;;;;;;9.73;1.23;;;15.30;60.30;;;;;;4881724;29;20041;-76
2023/01/19 16:33:30;;;;;;;6.38;0.88;;;15.30;60.40;;;;;;4881482;29;20080;-75
2023/01/19 16:35:56;;;;;;;6.72;0.90;;;15.30;60.20;;;;;;4912675;29;20072;-76